sensor_id;sensor_type;location;lat;lon;timestamp;P1;durP1;ratioP1;P2;durP2;ratioP2
21192;SDS011;10754;51.106;7.164;2023-11-21T00:01:25;4.30;;;3.90;;
21192;SDS011;10754;51.106;7.164;2023-11-21T00:03:50;5.13;;;3.70;;
21192;SDS011;10754;51.106;7.164;2023-11-21T00:06:19;4.80;;;3.72;;
21192;SDS011;10754;51.106;7.164;2023-11-21T00:08:45;5.13;;;4.00;;
21192;SDS011;10754;51.106;7.164;2023-11-21T00:11:10;3.72;;;3.35;;
21192;SDS011;10754;51.106;7.164;2023-11-21T00:13:36;4.90;;;3.90;;
21192;SDS011;10754;51.106;7.164;2023-11-21T00:16:02;3.78;;;3.40;;
21192;SDS011;10754;51.106;7.164;2023-11-21T00:18:29;6.40;;;3.67;;
21192;SDS011;10754;51.106;7.164;2023-11-21T00:20:54;4.72;;;3.42;;
21192;SDS011;10754;51.106;7.164;2023-11-21T00:23:20;4.33;;;3.37;;
21192;SDS011;10754;51.106;7.164;2023-11-21T00:25:45;6.20;;;4.00;;
21192;SDS011;10754;51.106;7.164;2023-11-21T00:28:11;4.72;;;3.83;;
21192;SDS011;10754;51.106;7.164;2023-11-21T00:30:36;4.45;;;3.75;;
21192;SDS011;10754;51.106;7.164;2023-11-21T00:33:03;6.57;;;3.50;;
21192;SDS011;10754;51.106;7.164;2023-11-21T00:35:29;5.37;;;3.40;;
21192;SDS011;10754;51.106;7.164;2023-11-21T00:37:54;4.10;;;3.80;;
21192;SDS011;10754;51.106;7.164;2023-11-21T00:40:21;4.13;;;3.70;;
21192;SDS011;10754;51.106;7.164;2023-11-21T00:42:47;4.15;;;3.28;;
21192;SDS011;10754;51.106;7.164;2023-11-21T00:45:12;4.63;;;3.70;;
21192;SDS011;10754;51.106;7.164;2023-11-21T00:47:38;4.38;;;3.65;;
21192;SDS011;10754;51.106;7.164;2023-11-21T00:50:04;5.55;;;3.95;;
21192;SDS011;10754;51.106;7.164;2023-11-21T00:52:31;4.80;;;4.00;;
21192;SDS011;10754;51.106;7.164;2023-11-21T00:54:57;5.10;;;3.42;;
21192;SDS011;10754;51.106;7.164;2023-11-21T00:57:25;3.92;;;3.53;;
21192;SDS011;10754;51.106;7.164;2023-11-21T00:59:51;4.57;;;4.07;;
21192;SDS011;10754;51.106;7.164;2023-11-21T01:02:16;5.28;;;4.07;;
21192;SDS011;10754;51.106;7.164;2023-11-21T01:04:42;3.93;;;3.40;;
21192;SDS011;10754;51.106;7.164;2023-11-21T01:07:08;4.13;;;3.73;;
21192;SDS011;10754;51.106;7.164;2023-11-21T01:09:34;4.07;;;3.67;;
21192;SDS011;10754;51.106;7.164;2023-11-21T01:11:59;4.53;;;4.13;;
21192;SDS011;10754;51.106;7.164;2023-11-21T01:14:25;4.80;;;3.78;;
21192;SDS011;10754;51.106;7.164;2023-11-21T01:16:52;4.05;;;3.67;;
21192;SDS011;10754;51.106;7.164;2023-11-21T01:19:17;6.07;;;4.10;;
21192;SDS011;10754;51.106;7.164;2023-11-21T01:21:43;5.83;;;4.03;;
21192;SDS011;10754;51.106;7.164;2023-11-21T01:24:08;4.10;;;3.70;;
21192;SDS011;10754;51.106;7.164;2023-11-21T01:26:34;4.30;;;3.90;;
21192;SDS011;10754;51.106;7.164;2023-11-21T01:28:59;4.30;;;3.90;;
21192;SDS011;10754;51.106;7.164;2023-11-21T01:31:25;5.10;;;3.90;;
21192;SDS011;10754;51.106;7.164;2023-11-21T01:33:54;4.13;;;3.67;;
21192;SDS011;10754;51.106;7.164;2023-11-21T01:36:20;5.70;;;4.20;;
21192;SDS011;10754;51.106;7.164;2023-11-21T01:38:46;4.87;;;4.03;;
21192;SDS011;10754;51.106;7.164;2023-11-21T01:41:14;6.10;;;4.10;;
21192;SDS011;10754;51.106;7.164;2023-11-21T01:43:40;4.23;;;3.53;;
21192;SDS011;10754;51.106;7.164;2023-11-21T01:46:06;5.17;;;4.20;;
21192;SDS011;10754;51.106;7.164;2023-11-21T01:48:33;4.83;;;3.83;;
21192;SDS011;10754;51.106;7.164;2023-11-21T01:50:59;5.40;;;3.67;;
21192;SDS011;10754;51.106;7.164;2023-11-21T01:53:25;5.00;;;3.97;;
21192;SDS011;10754;51.106;7.164;2023-11-21T01:55:51;5.30;;;3.90;;
21192;SDS011;10754;51.106;7.164;2023-11-21T01:58:18;4.90;;;3.90;;
21192;SDS011;10754;51.106;7.164;2023-11-21T02:00:44;4.90;;;3.90;;
21192;SDS011;10754;51.106;7.164;2023-11-21T02:03:10;4.93;;;3.80;;
21192;SDS011;10754;51.106;7.164;2023-11-21T02:05:35;5.27;;;3.87;;
21192;SDS011;10754;51.106;7.164;2023-11-21T02:08:01;4.60;;;3.70;;
21192;SDS011;10754;51.106;7.164;2023-11-21T02:10:28;4.33;;;3.50;;
21192;SDS011;10754;51.106;7.164;2023-11-21T02:12:54;4.00;;;3.33;;
21192;SDS011;10754;51.106;7.164;2023-11-21T02:15:21;4.17;;;3.30;;
21192;SDS011;10754;51.106;7.164;2023-11-21T02:17:48;8.13;;;3.40;;
21192;SDS011;10754;51.106;7.164;2023-11-21T02:20:18;3.77;;;3.47;;
21192;SDS011;10754;51.106;7.164;2023-11-21T02:22:51;6.20;;;4.20;;
21192;SDS011;10754;51.106;7.164;2023-11-21T02:25:27;5.90;;;3.67;;
21192;SDS011;10754;51.106;7.164;2023-11-21T02:27:54;4.50;;;3.83;;
21192;SDS011;10754;51.106;7.164;2023-11-21T02:30:23;5.07;;;3.97;;
21192;SDS011;10754;51.106;7.164;2023-11-21T02:32:50;4.13;;;3.27;;
21192;SDS011;10754;51.106;7.164;2023-11-21T02:35:18;4.13;;;3.60;;
21192;SDS011;10754;51.106;7.164;2023-11-21T02:37:46;5.07;;;3.80;;
21192;SDS011;10754;51.106;7.164;2023-11-21T02:40:15;5.80;;;4.10;;
21192;SDS011;10754;51.106;7.164;2023-11-21T02:42:45;7.63;;;4.23;;
21192;SDS011;10754;51.106;7.164;2023-11-21T02:45:12;4.37;;;3.50;;
21192;SDS011;10754;51.106;7.164;2023-11-21T02:47:41;6.90;;;3.73;;
21192;SDS011;10754;51.106;7.164;2023-11-21T02:50:08;6.70;;;4.00;;
21192;SDS011;10754;51.106;7.164;2023-11-21T02:52:34;5.83;;;3.90;;
21192;SDS011;10754;51.106;7.164;2023-11-21T02:55:00;6.70;;;4.93;;
21192;SDS011;10754;51.106;7.164;2023-11-21T02:57:29;7.77;;;4.77;;
21192;SDS011;10754;51.106;7.164;2023-11-21T02:59:54;3.80;;;3.43;;
21192;SDS011;10754;51.106;7.164;2023-11-21T03:02:20;5.47;;;3.80;;
21192;SDS011;10754;51.106;7.164;2023-11-21T03:04:47;4.10;;;3.70;;
21192;SDS011;10754;51.106;7.164;2023-11-21T03:07:14;6.10;;;4.23;;
21192;SDS011;10754;51.106;7.164;2023-11-21T03:09:40;5.30;;;4.30;;
21192;SDS011;10754;51.106;7.164;2023-11-21T03:12:05;6.87;;;3.50;;
21192;SDS011;10754;51.106;7.164;2023-11-21T03:14:31;6.83;;;3.70;;
21192;SDS011;10754;51.106;7.164;2023-11-21T03:16:56;4.40;;;4.00;;
21192;SDS011;10754;51.106;7.164;2023-11-21T03:19:22;4.20;;;3.73;;
21192;SDS011;10754;51.106;7.164;2023-11-21T03:21:48;6.70;;;4.03;;
21192;SDS011;10754;51.106;7.164;2023-11-21T03:24:14;3.80;;;3.47;;
21192;SDS011;10754;51.106;7.164;2023-11-21T03:26:43;7.73;;;4.30;;
21192;SDS011;10754;51.106;7.164;2023-11-21T03:29:09;6.33;;;3.70;;
21192;SDS011;10754;51.106;7.164;2023-11-21T03:31:35;6.23;;;3.90;;
21192;SDS011;10754;51.106;7.164;2023-11-21T03:34:01;4.30;;;3.63;;
21192;SDS011;10754;51.106;7.164;2023-11-21T03:36:26;7.57;;;3.97;;
21192;SDS011;10754;51.106;7.164;2023-11-21T03:38:52;4.63;;;3.83;;
21192;SDS011;10754;51.106;7.164;2023-11-21T03:41:17;6.63;;;4.30;;
21192;SDS011;10754;51.106;7.164;2023-11-21T03:43:43;4.80;;;4.30;;
21192;SDS011;10754;51.106;7.164;2023-11-21T03:46:09;4.10;;;3.70;;
21192;SDS011;10754;51.106;7.164;2023-11-21T03:48:35;6.03;;;4.03;;
21192;SDS011;10754;51.106;7.164;2023-11-21T03:51:00;5.13;;;4.00;;
21192;SDS011;10754;51.106;7.164;2023-11-21T03:53:26;7.07;;;4.10;;
21192;SDS011;10754;51.106;7.164;2023-11-21T03:55:51;4.57;;;3.83;;
21192;SDS011;10754;51.106;7.164;2023-11-21T03:58:17;5.03;;;4.53;;
21192;SDS011;10754;51.106;7.164;2023-11-21T04:00:43;5.17;;;4.30;;
21192;SDS011;10754;51.106;7.164;2023-11-21T04:03:08;4.63;;;4.13;;
21192;SDS011;10754;51.106;7.164;2023-11-21T04:05:34;9.50;;;4.00;;
21192;SDS011;10754;51.106;7.164;2023-11-21T04:07:59;5.60;;;3.90;;
21192;SDS011;10754;51.106;7.164;2023-11-21T04:10:25;5.33;;;4.00;;
21192;SDS011;10754;51.106;7.164;2023-11-21T04:12:50;6.03;;;3.63;;
21192;SDS011;10754;51.106;7.164;2023-11-21T04:15:16;4.77;;;4.27;;
21192;SDS011;10754;51.106;7.164;2023-11-21T04:17:42;6.90;;;4.50;;
21192;SDS011;10754;51.106;7.164;2023-11-21T04:20:08;4.67;;;3.90;;
21192;SDS011;10754;51.106;7.164;2023-11-21T04:22:41;4.37;;;3.97;;
21192;SDS011;10754;51.106;7.164;2023-11-21T04:25:11;4.30;;;3.90;;
21192;SDS011;10754;51.106;7.164;2023-11-21T04:27:40;6.17;;;4.13;;
21192;SDS011;10754;51.106;7.164;2023-11-21T04:30:08;6.17;;;4.40;;
21192;SDS011;10754;51.106;7.164;2023-11-21T04:32:35;5.70;;;5.00;;
21192;SDS011;10754;51.106;7.164;2023-11-21T04:35:00;5.93;;;5.33;;
21192;SDS011;10754;51.106;7.164;2023-11-21T04:37:26;6.73;;;5.53;;
21192;SDS011;10754;51.106;7.164;2023-11-21T04:39:52;5.07;;;4.50;;
21192;SDS011;10754;51.106;7.164;2023-11-21T04:42:17;5.90;;;5.07;;
21192;SDS011;10754;51.106;7.164;2023-11-21T04:44:43;9.03;;;5.23;;
21192;SDS011;10754;51.106;7.164;2023-11-21T04:47:09;7.87;;;5.10;;
21192;SDS011;10754;51.106;7.164;2023-11-21T04:49:35;4.90;;;4.37;;
21192;SDS011;10754;51.106;7.164;2023-11-21T04:52:00;5.93;;;5.00;;
21192;SDS011;10754;51.106;7.164;2023-11-21T04:54:26;6.77;;;4.87;;
21192;SDS011;10754;51.106;7.164;2023-11-21T04:56:52;7.53;;;4.63;;
21192;SDS011;10754;51.106;7.164;2023-11-21T04:59:17;5.80;;;4.60;;
21192;SDS011;10754;51.106;7.164;2023-11-21T05:01:43;5.33;;;4.07;;
21192;SDS011;10754;51.106;7.164;2023-11-21T05:04:09;9.67;;;5.23;;
21192;SDS011;10754;51.106;7.164;2023-11-21T05:06:34;6.47;;;5.50;;
21192;SDS011;10754;51.106;7.164;2023-11-21T05:09:00;8.23;;;5.43;;
21192;SDS011;10754;51.106;7.164;2023-11-21T05:11:26;7.67;;;5.57;;
21192;SDS011;10754;51.106;7.164;2023-11-21T05:13:52;6.27;;;5.50;;
21192;SDS011;10754;51.106;7.164;2023-11-21T05:16:18;5.23;;;4.73;;
21192;SDS011;10754;51.106;7.164;2023-11-21T05:18:44;9.20;;;5.63;;
21192;SDS011;10754;51.106;7.164;2023-11-21T05:21:10;9.40;;;6.20;;
21192;SDS011;10754;51.106;7.164;2023-11-21T05:23:35;8.13;;;5.00;;
21192;SDS011;10754;51.106;7.164;2023-11-21T05:26:02;5.60;;;5.10;;
21192;SDS011;10754;51.106;7.164;2023-11-21T05:28:28;6.97;;;5.63;;
21192;SDS011;10754;51.106;7.164;2023-11-21T05:30:53;6.60;;;5.90;;
21192;SDS011;10754;51.106;7.164;2023-11-21T05:33:19;8.07;;;5.00;;
21192;SDS011;10754;51.106;7.164;2023-11-21T05:35:44;9.57;;;4.97;;
21192;SDS011;10754;51.106;7.164;2023-11-21T05:38:10;6.37;;;5.17;;
21192;SDS011;10754;51.106;7.164;2023-11-21T05:40:36;6.13;;;5.15;;
21192;SDS011;10754;51.106;7.164;2023-11-21T05:43:01;5.53;;;5.00;;
21192;SDS011;10754;51.106;7.164;2023-11-21T05:45:27;7.07;;;5.03;;
21192;SDS011;10754;51.106;7.164;2023-11-21T05:47:53;6.30;;;5.20;;
21192;SDS011;10754;51.106;7.164;2023-11-21T05:50:20;8.47;;;5.60;;
21192;SDS011;10754;51.106;7.164;2023-11-21T05:52:47;5.80;;;5.20;;
21192;SDS011;10754;51.106;7.164;2023-11-21T05:55:13;7.27;;;5.57;;
21192;SDS011;10754;51.106;7.164;2023-11-21T05:57:39;6.17;;;5.03;;
21192;SDS011;10754;51.106;7.164;2023-11-21T06:00:06;8.43;;;5.13;;
21192;SDS011;10754;51.106;7.164;2023-11-21T06:02:39;5.27;;;4.77;;
21192;SDS011;10754;51.106;7.164;2023-11-21T06:05:08;5.27;;;4.77;;
21192;SDS011;10754;51.106;7.164;2023-11-21T06:07:34;6.40;;;5.33;;
21192;SDS011;10754;51.106;7.164;2023-11-21T06:10:01;10.73;;;6.40;;
21192;SDS011;10754;51.106;7.164;2023-11-21T06:12:28;6.63;;;5.80;;
21192;SDS011;10754;51.106;7.164;2023-11-21T06:14:54;6.60;;;5.90;;
21192;SDS011;10754;51.106;7.164;2023-11-21T06:17:20;7.37;;;5.40;;
21192;SDS011;10754;51.106;7.164;2023-11-21T06:19:46;7.90;;;6.20;;
21192;SDS011;10754;51.106;7.164;2023-11-21T06:22:11;6.93;;;6.07;;
21192;SDS011;10754;51.106;7.164;2023-11-21T06:24:37;10.40;;;6.00;;
21192;SDS011;10754;51.106;7.164;2023-11-21T06:27:05;6.20;;;5.50;;
21192;SDS011;10754;51.106;7.164;2023-11-21T06:29:31;6.80;;;5.77;;
21192;SDS011;10754;51.106;7.164;2023-11-21T06:31:57;7.17;;;6.47;;
21192;SDS011;10754;51.106;7.164;2023-11-21T06:34:23;7.80;;;5.97;;
21192;SDS011;10754;51.106;7.164;2023-11-21T06:36:49;6.97;;;5.93;;
21192;SDS011;10754;51.106;7.164;2023-11-21T06:39:14;10.00;;;7.57;;
21192;SDS011;10754;51.106;7.164;2023-11-21T06:41:41;6.90;;;6.07;;
21192;SDS011;10754;51.106;7.164;2023-11-21T06:44:08;7.30;;;6.45;;
21192;SDS011;10754;51.106;7.164;2023-11-21T06:46:33;6.90;;;6.20;;
21192;SDS011;10754;51.106;7.164;2023-11-21T06:48:59;7.33;;;6.03;;
21192;SDS011;10754;51.106;7.164;2023-11-21T06:51:24;7.57;;;5.80;;
21192;SDS011;10754;51.106;7.164;2023-11-21T06:53:50;8.67;;;6.20;;
21192;SDS011;10754;51.106;7.164;2023-11-21T06:56:18;6.63;;;6.03;;
21192;SDS011;10754;51.106;7.164;2023-11-21T06:58:45;8.00;;;6.60;;
21192;SDS011;10754;51.106;7.164;2023-11-21T07:01:11;7.17;;;6.47;;
21192;SDS011;10754;51.106;7.164;2023-11-21T07:03:40;7.30;;;6.60;;
21192;SDS011;10754;51.106;7.164;2023-11-21T07:06:06;7.40;;;6.70;;
21192;SDS011;10754;51.106;7.164;2023-11-21T07:08:32;10.23;;;6.87;;
21192;SDS011;10754;51.106;7.164;2023-11-21T07:10:58;9.63;;;6.10;;
21192;SDS011;10754;51.106;7.164;2023-11-21T07:13:23;13.17;;;6.77;;
21192;SDS011;10754;51.106;7.164;2023-11-21T07:15:49;6.37;;;5.67;;
21192;SDS011;10754;51.106;7.164;2023-11-21T07:18:14;10.63;;;6.30;;
21192;SDS011;10754;51.106;7.164;2023-11-21T07:20:40;7.28;;;6.10;;
21192;SDS011;10754;51.106;7.164;2023-11-21T07:23:05;7.87;;;6.33;;
21192;SDS011;10754;51.106;7.164;2023-11-21T07:25:31;7.23;;;6.53;;
21192;SDS011;10754;51.106;7.164;2023-11-21T07:27:58;7.43;;;6.30;;
21192;SDS011;10754;51.106;7.164;2023-11-21T07:30:24;11.53;;;10.33;;
21192;SDS011;10754;51.106;7.164;2023-11-21T07:32:50;8.93;;;8.03;;
21192;SDS011;10754;51.106;7.164;2023-11-21T07:35:15;8.13;;;6.63;;
21192;SDS011;10754;51.106;7.164;2023-11-21T07:37:41;7.80;;;7.00;;
21192;SDS011;10754;51.106;7.164;2023-11-21T07:40:08;9.98;;;6.80;;
21192;SDS011;10754;51.106;7.164;2023-11-21T07:42:34;10.73;;;7.13;;
21192;SDS011;10754;51.106;7.164;2023-11-21T07:44:59;7.20;;;6.40;;
21192;SDS011;10754;51.106;7.164;2023-11-21T07:47:25;7.03;;;6.33;;
21192;SDS011;10754;51.106;7.164;2023-11-21T07:49:52;8.13;;;6.60;;
21192;SDS011;10754;51.106;7.164;2023-11-21T07:52:18;9.23;;;7.15;;
21192;SDS011;10754;51.106;7.164;2023-11-21T07:54:46;13.25;;;7.10;;
21192;SDS011;10754;51.106;7.164;2023-11-21T07:57:11;10.17;;;7.73;;
21192;SDS011;10754;51.106;7.164;2023-11-21T07:59:38;12.27;;;9.50;;
21192;SDS011;10754;51.106;7.164;2023-11-21T08:02:07;10.90;;;8.93;;
21192;SDS011;10754;51.106;7.164;2023-11-21T08:04:32;14.67;;;10.20;;
21192;SDS011;10754;51.106;7.164;2023-11-21T08:06:59;12.93;;;11.40;;
21192;SDS011;10754;51.106;7.164;2023-11-21T08:09:24;18.37;;;12.27;;
21192;SDS011;10754;51.106;7.164;2023-11-21T08:11:50;15.07;;;11.20;;
21192;SDS011;10754;51.106;7.164;2023-11-21T08:14:17;19.27;;;13.17;;
21192;SDS011;10754;51.106;7.164;2023-11-21T08:16:43;18.67;;;12.60;;
21192;SDS011;10754;51.106;7.164;2023-11-21T08:19:09;17.27;;;12.52;;
21192;SDS011;10754;51.106;7.164;2023-11-21T08:21:36;21.67;;;14.90;;
21192;SDS011;10754;51.106;7.164;2023-11-21T08:24:04;19.52;;;13.90;;
21192;SDS011;10754;51.106;7.164;2023-11-21T08:26:30;20.05;;;13.52;;
21192;SDS011;10754;51.106;7.164;2023-11-21T08:28:56;19.17;;;14.87;;
21192;SDS011;10754;51.106;7.164;2023-11-21T08:31:25;20.40;;;13.85;;
21192;SDS011;10754;51.106;7.164;2023-11-21T08:33:51;18.93;;;12.63;;
21192;SDS011;10754;51.106;7.164;2023-11-21T08:36:16;19.27;;;14.30;;
21192;SDS011;10754;51.106;7.164;2023-11-21T08:38:42;19.37;;;13.77;;
21192;SDS011;10754;51.106;7.164;2023-11-21T08:41:07;22.33;;;14.27;;
21192;SDS011;10754;51.106;7.164;2023-11-21T08:43:36;17.77;;;13.45;;
21192;SDS011;10754;51.106;7.164;2023-11-21T08:46:04;21.77;;;14.60;;
21192;SDS011;10754;51.106;7.164;2023-11-21T08:48:31;21.40;;;14.40;;
21192;SDS011;10754;51.106;7.164;2023-11-21T08:50:56;19.50;;;14.10;;
21192;SDS011;10754;51.106;7.164;2023-11-21T08:53:22;20.83;;;15.53;;
21192;SDS011;10754;51.106;7.164;2023-11-21T08:55:47;21.83;;;15.97;;
21192;SDS011;10754;51.106;7.164;2023-11-21T08:58:15;22.60;;;15.75;;
21192;SDS011;10754;51.106;7.164;2023-11-21T09:00:40;22.50;;;16.27;;
21192;SDS011;10754;51.106;7.164;2023-11-21T09:03:06;18.90;;;14.23;;
21192;SDS011;10754;51.106;7.164;2023-11-21T09:05:33;22.83;;;15.70;;
21192;SDS011;10754;51.106;7.164;2023-11-21T09:08:03;22.60;;;16.87;;
21192;SDS011;10754;51.106;7.164;2023-11-21T09:10:29;21.33;;;16.47;;
21192;SDS011;10754;51.106;7.164;2023-11-21T09:12:54;23.60;;;17.80;;
21192;SDS011;10754;51.106;7.164;2023-11-21T09:15:20;22.45;;;16.70;;
21192;SDS011;10754;51.106;7.164;2023-11-21T09:17:45;20.67;;;15.93;;
21192;SDS011;10754;51.106;7.164;2023-11-21T09:20:11;25.00;;;17.27;;
21192;SDS011;10754;51.106;7.164;2023-11-21T09:22:37;25.87;;;18.03;;
21192;SDS011;10754;51.106;7.164;2023-11-21T09:25:03;27.40;;;18.52;;
21192;SDS011;10754;51.106;7.164;2023-11-21T09:27:30;25.23;;;17.45;;
21192;SDS011;10754;51.106;7.164;2023-11-21T09:29:56;23.73;;;17.87;;
21192;SDS011;10754;51.106;7.164;2023-11-21T09:32:23;25.65;;;18.42;;
21192;SDS011;10754;51.106;7.164;2023-11-21T09:34:48;24.70;;;16.90;;
21192;SDS011;10754;51.106;7.164;2023-11-21T09:37:15;23.25;;;17.10;;
21192;SDS011;10754;51.106;7.164;2023-11-21T09:39:41;25.17;;;17.53;;
21192;SDS011;10754;51.106;7.164;2023-11-21T09:44:40;22.83;;;17.03;;
21192;SDS011;10754;51.106;7.164;2023-11-21T09:47:29;22.07;;;17.07;;
21192;SDS011;10754;51.106;7.164;2023-11-21T09:49:54;23.85;;;16.33;;
21192;SDS011;10754;51.106;7.164;2023-11-21T09:52:26;25.75;;;17.80;;
21192;SDS011;10754;51.106;7.164;2023-11-21T09:54:52;26.92;;;17.05;;
21192;SDS011;10754;51.106;7.164;2023-11-21T09:57:21;22.67;;;15.87;;
21192;SDS011;10754;51.106;7.164;2023-11-21T09:59:50;22.20;;;16.70;;
21192;SDS011;10754;51.106;7.164;2023-11-21T10:02:17;21.33;;;15.20;;
21192;SDS011;10754;51.106;7.164;2023-11-21T10:04:45;19.77;;;15.45;;
21192;SDS011;10754;51.106;7.164;2023-11-21T10:07:12;26.47;;;17.17;;
21192;SDS011;10754;51.106;7.164;2023-11-21T10:09:41;25.90;;;17.67;;
21192;SDS011;10754;51.106;7.164;2023-11-21T10:12:07;24.95;;;17.92;;
21192;SDS011;10754;51.106;7.164;2023-11-21T10:14:35;22.15;;;16.50;;
21192;SDS011;10754;51.106;7.164;2023-11-21T10:17:05;22.10;;;16.10;;
21192;SDS011;10754;51.106;7.164;2023-11-21T10:19:33;21.48;;;16.85;;
21192;SDS011;10754;51.106;7.164;2023-11-21T10:22:01;26.75;;;18.30;;
21192;SDS011;10754;51.106;7.164;2023-11-21T10:24:28;24.83;;;16.80;;
21192;SDS011;10754;51.106;7.164;2023-11-21T10:26:54;23.60;;;17.60;;
21192;SDS011;10754;51.106;7.164;2023-11-21T10:29:19;20.30;;;16.45;;
21192;SDS011;10754;51.106;7.164;2023-11-21T10:31:48;24.70;;;17.97;;
21192;SDS011;10754;51.106;7.164;2023-11-21T10:36:43;22.48;;;17.80;;
21192;SDS011;10754;51.106;7.164;2023-11-21T10:39:09;25.98;;;17.98;;
21192;SDS011;10754;51.106;7.164;2023-11-21T10:41:38;22.20;;;18.15;;
21192;SDS011;10754;51.106;7.164;2023-11-21T10:44:04;23.45;;;18.00;;
21192;SDS011;10754;51.106;7.164;2023-11-21T10:46:32;24.25;;;17.90;;
21192;SDS011;10754;51.106;7.164;2023-11-21T10:48:58;24.27;;;18.30;;
21192;SDS011;10754;51.106;7.164;2023-11-21T10:51:24;26.63;;;18.40;;
21192;SDS011;10754;51.106;7.164;2023-11-21T10:53:53;25.90;;;18.48;;
21192;SDS011;10754;51.106;7.164;2023-11-21T10:56:19;25.90;;;18.08;;
21192;SDS011;10754;51.106;7.164;2023-11-21T10:58:49;22.27;;;17.65;;
21192;SDS011;10754;51.106;7.164;2023-11-21T11:01:17;22.17;;;17.57;;
21192;SDS011;10754;51.106;7.164;2023-11-21T11:03:43;21.27;;;16.42;;
21192;SDS011;10754;51.106;7.164;2023-11-21T11:06:09;24.95;;;18.17;;
21192;SDS011;10754;51.106;7.164;2023-11-21T11:08:36;22.63;;;17.83;;
21192;SDS011;10754;51.106;7.164;2023-11-21T11:11:02;23.55;;;17.63;;
21192;SDS011;10754;51.106;7.164;2023-11-21T11:13:29;21.87;;;17.10;;
21192;SDS011;10754;51.106;7.164;2023-11-21T11:15:57;22.75;;;17.27;;
21192;SDS011;10754;51.106;7.164;2023-11-21T11:18:27;22.83;;;16.83;;
21192;SDS011;10754;51.106;7.164;2023-11-21T11:20:54;19.23;;;16.17;;
21192;SDS011;10754;51.106;7.164;2023-11-21T11:23:37;21.40;;;16.38;;
21192;SDS011;10754;51.106;7.164;2023-11-21T11:26:15;21.23;;;15.80;;
21192;SDS011;10754;51.106;7.164;2023-11-21T11:28:47;21.83;;;15.95;;
21192;SDS011;10754;51.106;7.164;2023-11-21T11:37:20;22.48;;;15.98;;
21192;SDS011;10754;51.106;7.164;2023-11-21T11:39:47;21.33;;;16.13;;
21192;SDS011;10754;51.106;7.164;2023-11-21T11:42:17;21.77;;;16.05;;
21192;SDS011;10754;51.106;7.164;2023-11-21T11:49:56;22.63;;;16.20;;
21192;SDS011;10754;51.106;7.164;2023-11-21T11:52:33;18.38;;;14.60;;
21192;SDS011;10754;51.106;7.164;2023-11-21T11:55:00;19.55;;;15.85;;
21192;SDS011;10754;51.106;7.164;2023-11-21T11:57:29;21.20;;;16.10;;
21192;SDS011;10754;51.106;7.164;2023-11-21T12:00:13;23.23;;;18.02;;
21192;SDS011;10754;51.106;7.164;2023-11-21T12:02:53;25.63;;;17.85;;
21192;SDS011;10754;51.106;7.164;2023-11-21T12:05:21;23.52;;;17.70;;
21192;SDS011;10754;51.106;7.164;2023-11-21T12:07:49;28.30;;;18.58;;
21192;SDS011;10754;51.106;7.164;2023-11-21T12:10:29;24.30;;;19.17;;
21192;SDS011;10754;51.106;7.164;2023-11-21T12:13:00;23.83;;;18.25;;
21192;SDS011;10754;51.106;7.164;2023-11-21T12:15:27;33.33;;;20.05;;
21192;SDS011;10754;51.106;7.164;2023-11-21T12:17:56;24.48;;;19.02;;
21192;SDS011;10754;51.106;7.164;2023-11-21T12:20:23;24.13;;;18.10;;
21192;SDS011;10754;51.106;7.164;2023-11-21T12:22:53;28.27;;;17.67;;
21192;SDS011;10754;51.106;7.164;2023-11-21T12:25:23;23.60;;;18.90;;
21192;SDS011;10754;51.106;7.164;2023-11-21T12:27:53;28.73;;;19.88;;
21192;SDS011;10754;51.106;7.164;2023-11-21T12:30:20;23.55;;;17.23;;
21192;SDS011;10754;51.106;7.164;2023-11-21T12:32:50;22.10;;;18.23;;
21192;SDS011;10754;51.106;7.164;2023-11-21T12:35:18;24.48;;;17.35;;
21192;SDS011;10754;51.106;7.164;2023-11-21T12:37:45;24.08;;;16.88;;
21192;SDS011;10754;51.106;7.164;2023-11-21T12:40:12;23.80;;;17.10;;
21192;SDS011;10754;51.106;7.164;2023-11-21T12:42:47;22.45;;;16.77;;
21192;SDS011;10754;51.106;7.164;2023-11-21T12:47:59;19.90;;;15.18;;
21192;SDS011;10754;51.106;7.164;2023-11-21T12:50:29;21.88;;;15.50;;
21192;SDS011;10754;51.106;7.164;2023-11-21T12:53:06;20.55;;;15.38;;
21192;SDS011;10754;51.106;7.164;2023-11-21T12:55:34;19.65;;;15.00;;
21192;SDS011;10754;51.106;7.164;2023-11-21T12:58:03;19.63;;;14.10;;
21192;SDS011;10754;51.106;7.164;2023-11-21T13:00:42;17.50;;;13.45;;
21192;SDS011;10754;51.106;7.164;2023-11-21T13:03:10;19.45;;;14.00;;
21192;SDS011;10754;51.106;7.164;2023-11-21T13:05:45;21.33;;;15.45;;
21192;SDS011;10754;51.106;7.164;2023-11-21T13:08:15;21.70;;;15.45;;
21192;SDS011;10754;51.106;7.164;2023-11-21T13:10:44;19.33;;;14.60;;
21192;SDS011;10754;51.106;7.164;2023-11-21T13:13:14;19.40;;;14.13;;
21192;SDS011;10754;51.106;7.164;2023-11-21T13:18:21;19.20;;;12.45;;
21192;SDS011;10754;51.106;7.164;2023-11-21T13:20:52;16.83;;;13.10;;
21192;SDS011;10754;51.106;7.164;2023-11-21T13:23:18;19.00;;;13.63;;
21192;SDS011;10754;51.106;7.164;2023-11-21T13:25:44;17.90;;;12.55;;
21192;SDS011;10754;51.106;7.164;2023-11-21T13:28:13;20.15;;;13.85;;
21192;SDS011;10754;51.106;7.164;2023-11-21T13:30:40;21.17;;;14.10;;
21192;SDS011;10754;51.106;7.164;2023-11-21T13:33:06;19.58;;;15.30;;
21192;SDS011;10754;51.106;7.164;2023-11-21T13:35:33;20.15;;;14.25;;
21192;SDS011;10754;51.106;7.164;2023-11-21T13:38:09;17.75;;;12.75;;
21192;SDS011;10754;51.106;7.164;2023-11-21T13:40:36;19.38;;;13.93;;
21192;SDS011;10754;51.106;7.164;2023-11-21T13:43:09;21.80;;;15.43;;
21192;SDS011;10754;51.106;7.164;2023-11-21T13:45:36;19.35;;;14.82;;
21192;SDS011;10754;51.106;7.164;2023-11-21T13:48:04;19.48;;;14.10;;
21192;SDS011;10754;51.106;7.164;2023-11-21T13:50:33;23.38;;;15.75;;
21192;SDS011;10754;51.106;7.164;2023-11-21T13:53:02;24.80;;;15.98;;
21192;SDS011;10754;51.106;7.164;2023-11-21T13:55:35;20.48;;;15.23;;
21192;SDS011;10754;51.106;7.164;2023-11-21T13:58:02;22.30;;;14.95;;
21192;SDS011;10754;51.106;7.164;2023-11-21T14:00:29;23.73;;;14.45;;
21192;SDS011;10754;51.106;7.164;2023-11-21T14:03:10;17.08;;;13.38;;
21192;SDS011;10754;51.106;7.164;2023-11-21T14:05:44;24.35;;;15.55;;
21192;SDS011;10754;51.106;7.164;2023-11-21T14:08:12;22.90;;;16.33;;
21192;SDS011;10754;51.106;7.164;2023-11-21T14:10:41;21.17;;;15.70;;
21192;SDS011;10754;51.106;7.164;2023-11-21T14:13:14;24.10;;;14.65;;
21192;SDS011;10754;51.106;7.164;2023-11-21T14:15:41;23.23;;;15.52;;
21192;SDS011;10754;51.106;7.164;2023-11-21T14:18:10;20.67;;;15.38;;
21192;SDS011;10754;51.106;7.164;2023-11-21T14:20:39;19.52;;;14.48;;
21192;SDS011;10754;51.106;7.164;2023-11-21T14:23:06;19.45;;;13.88;;
21192;SDS011;10754;51.106;7.164;2023-11-21T14:25:33;21.45;;;15.30;;
21192;SDS011;10754;51.106;7.164;2023-11-21T14:27:59;22.80;;;15.55;;
21192;SDS011;10754;51.106;7.164;2023-11-21T14:30:25;20.65;;;13.95;;
21192;SDS011;10754;51.106;7.164;2023-11-21T14:32:52;19.08;;;15.20;;
21192;SDS011;10754;51.106;7.164;2023-11-21T14:35:18;21.17;;;15.50;;
21192;SDS011;10754;51.106;7.164;2023-11-21T14:37:43;20.65;;;15.55;;
21192;SDS011;10754;51.106;7.164;2023-11-21T14:40:09;23.65;;;16.40;;
21192;SDS011;10754;51.106;7.164;2023-11-21T14:42:35;20.90;;;14.57;;
21192;SDS011;10754;51.106;7.164;2023-11-21T14:45:04;23.43;;;15.20;;
21192;SDS011;10754;51.106;7.164;2023-11-21T14:47:32;20.80;;;14.60;;
21192;SDS011;10754;51.106;7.164;2023-11-21T14:49:59;18.63;;;14.27;;
21192;SDS011;10754;51.106;7.164;2023-11-21T14:52:44;17.15;;;13.68;;
21192;SDS011;10754;51.106;7.164;2023-11-21T14:55:20;21.25;;;13.88;;
21192;SDS011;10754;51.106;7.164;2023-11-21T14:57:56;16.45;;;12.85;;